12  °C
Temperature
5  °C
  Dewpoint
   Humidity
Temp | Dewpoint | Humidity
23  km/h
Wind Speed
14  mph
Wind Speed
12  kts
Wind Speed
210°
South South
West

Wind Speed
Mostly Cloudy
Conditions
Pressure 1026.92 (hPa) - 30.32 (in)
Visibility 6.2 (mi) - 10.0 (km)

Current Conditions
LGNX
Location 6km (3.2mi)
Metar :LGNX 201150Z 21012KT 9999 BKN025 12/05 Q1027
Thu 20th January 13:50 pm

Airport
  Metar Aviation API Data Provided by https://www.checkwx.com/ CSS/SVG/PHP scripts by weather34.com © 2015-2022